New Orleans, LA (70145)

4:35 PM CDT on July 06, 2015 (GMT -0500)
French Quarter | | Change Station
CLOSE
Current Station
Personal Weather Station
Location: New Orleans, LA
Elevation: 30 ft
Nearby Weather Stations

Elev 30 ft 29.96 °N, 90.07 °W | Updated 29 seconds ago

Mostly Cloudy
Mostly Cloudy
94.5 °F
Feels Like 101 °F
N
4.7
Wind Variable Wind from NNE

Today
High -- | Low -- °F
--% Chance of Precip.
Yesterday
High -- | Low -- °F
Precip. -- in
6:04 AM 8:04 PM
Waning Gibbous, 72% visible
Pressure 30.10 in
Visibility 10.0 miles
Clouds Mostly Cloudy 3000 ft
Mostly Cloudy 3800 ft
Heat Index 101 °F
Dew Point 70 °F
Humidity 46%
Rainfall 0.00 in
Snow Depth Not available.
UV 5 out of 12
Pollen 3.50 out of 12
Air Quality Not available.
Flu Activity Not available.
METAR KNEW 062053Z 07007KT 10SM BKN030 BKN038 33/25 A3012 RMK AO2 SLP191 T03330250 58014

More Conditions Fewer Conditions

Pressure 30.10 in
Visibility 10.0 miles
Clouds Mostly Cloudy 3000 ft
Mostly Cloudy 3800 ft
Heat Index 101 °F
Dew Point 70 °F
Humidity 46%
Rainfall 0.00 in
Snow Depth Not available.
UV 5 out of 12
Pollen 3.50 out of 12
Air Quality Not available.
Flu Activity Not available.
METAR KNEW 062053Z 07007KT 10SM BKN030 BKN038 33/25 A3012 RMK AO2 SLP191 T03330250 58014

More Conditions Fewer Conditions

10-Day Weather Forecast

×

Almanac

Astronomy

Jul. 06, 2015 Rise Set
Actual Time
Civil Twilight
Nautical Twilight
Astronomical Twilight
Moon
Length of Visible Light
Length of Day
Tomorrow will be .
, % of the Moon is Illuminated

Today's Extremes

State Highs State Lows

Community

WunderPhotos

Upload Photos

1,835,659 photos uploaded!

WunderBlogs® & News

Nearby

Air Quality

  Air Quality AQ Index Pollutant
Not available.

Snow Depth

Station Depth Elevation

Earthquake Activity

City Distance Mag. Time & Date
Minimum magnitude displayed is 2.5.

Coastal Water Temperatures

Place Temperature

Stations

Nearby Weather Stations

Station Location Temp. Windchill Dew Point Humidity Wind Precip. Elev Updated Type